sensor_id;sensor_type;location;lat;lon;timestamp;pressure;altitude;pressure_sealevel;temperature;humidity
12215;BME280;6170;42.206;24.142;2022-12-18T00:00:09;99428.84;;;11.25;100.00
12215;BME280;6170;42.206;24.142;2022-12-18T00:02:36;99457.50;;;11.46;100.00
12215;BME280;6170;42.206;24.142;2022-12-18T00:05:03;99465.50;;;11.40;100.00
12215;BME280;6170;42.206;24.142;2022-12-18T00:07:30;99461.56;;;11.36;99.82
12215;BME280;6170;42.206;24.142;2022-12-18T00:09:56;99501.56;;;11.52;100.00
12215;BME280;6170;42.206;24.142;2022-12-18T00:12:23;99464.66;;;11.18;100.00
12215;BME280;6170;42.206;24.142;2022-12-18T00:14:51;99508.00;;;11.36;100.00
12215;BME280;6170;42.206;24.142;2022-12-18T00:17:18;99472.19;;;11.08;100.00
12215;BME280;6170;42.206;24.142;2022-12-18T00:19:45;99517.91;;;11.36;100.00
12215;BME280;6170;42.206;24.142;2022-12-18T00:22:12;99480.44;;;11.06;100.00
12215;BME280;6170;42.206;24.142;2022-12-18T00:24:38;99525.13;;;11.35;100.00
12215;BME280;6170;42.206;24.142;2022-12-18T00:27:05;99484.75;;;11.07;100.00
12215;BME280;6170;42.206;24.142;2022-12-18T00:29:32;99475.25;;;10.90;100.00
12215;BME280;6170;42.206;24.142;2022-12-18T00:32:00;99492.06;;;10.99;100.00
12215;BME280;6170;42.206;24.142;2022-12-18T00:34:27;99533.56;;;11.32;100.00
12215;BME280;6170;42.206;24.142;2022-12-18T00:36:54;99498.13;;;11.22;100.00
12215;BME280;6170;42.206;24.142;2022-12-18T00:39:21;99492.19;;;11.26;99.12
12215;BME280;6170;42.206;24.142;2022-12-18T00:41:47;99500.88;;;11.28;98.78
12215;BME280;6170;42.206;24.142;2022-12-18T00:44:32;99503.56;;;11.28;98.53
12215;BME280;6170;42.206;24.142;2022-12-18T00:46:58;99499.81;;;11.23;98.74
12215;BME280;6170;42.206;24.142;2022-12-18T00:49:27;99493.34;;;11.17;98.60
12215;BME280;6170;42.206;24.142;2022-12-18T00:51:53;99493.16;;;11.19;98.42
12215;BME280;6170;42.206;24.142;2022-12-18T00:54:20;99542.31;;;11.41;98.11
12215;BME280;6170;42.206;24.142;2022-12-18T00:56:47;99493.22;;;11.25;97.77
12215;BME280;6170;42.206;24.142;2022-12-18T00:59:14;99488.25;;;11.08;98.05
12215;BME280;6170;42.206;24.142;2022-12-18T01:01:40;99486.03;;;11.11;97.62
12215;BME280;6170;42.206;24.142;2022-12-18T01:04:07;99491.22;;;11.13;97.17
12215;BME280;6170;42.206;24.142;2022-12-18T01:06:36;99508.06;;;11.07;97.74
12215;BME280;6170;42.206;24.142;2022-12-18T01:09:03;99495.88;;;11.04;97.59
12215;BME280;6170;42.206;24.142;2022-12-18T01:11:30;99541.59;;;11.32;97.58
12215;BME280;6170;42.206;24.142;2022-12-18T01:13:57;99506.19;;;11.07;97.40
12215;BME280;6170;42.206;24.142;2022-12-18T01:16:25;99508.81;;;11.01;97.78
12215;BME280;6170;42.206;24.142;2022-12-18T01:18:53;99506.97;;;11.01;97.38
12215;BME280;6170;42.206;24.142;2022-12-18T01:21:21;99558.88;;;11.30;97.23
12215;BME280;6170;42.206;24.142;2022-12-18T01:23:52;99521.00;;;11.03;97.02
12215;BME280;6170;42.206;24.142;2022-12-18T01:26:20;99520.16;;;11.03;96.69
12215;BME280;6170;42.206;24.142;2022-12-18T01:28:47;99524.63;;;10.96;96.76
12215;BME280;6170;42.206;24.142;2022-12-18T01:31:17;99531.19;;;11.08;97.05
12215;BME280;6170;42.206;24.142;2022-12-18T01:33:45;99520.44;;;11.08;96.13
12215;BME280;6170;42.206;24.142;2022-12-18T01:36:16;99546.63;;;11.06;97.23
12215;BME280;6170;42.206;24.142;2022-12-18T01:38:45;99548.56;;;11.12;97.06
12215;BME280;6170;42.206;24.142;2022-12-18T01:41:14;99542.00;;;11.14;96.71
12215;BME280;6170;42.206;24.142;2022-12-18T01:43:44;99567.16;;;11.28;96.22
12215;BME280;6170;42.206;24.142;2022-12-18T01:46:11;99533.41;;;11.04;96.20
12215;BME280;6170;42.206;24.142;2022-12-18T01:48:38;99536.34;;;11.24;95.62
12215;BME280;6170;42.206;24.142;2022-12-18T01:51:07;99535.25;;;11.18;94.37
12215;BME280;6170;42.206;24.142;2022-12-18T01:53:36;99574.06;;;11.37;94.63
12215;BME280;6170;42.206;24.142;2022-12-18T01:56:03;99574.97;;;11.30;95.13
12215;BME280;6170;42.206;24.142;2022-12-18T01:58:37;99539.78;;;11.03;94.70
12215;BME280;6170;42.206;24.142;2022-12-18T02:01:06;99531.19;;;10.93;94.99
12215;BME280;6170;42.206;24.142;2022-12-18T02:03:33;99542.19;;;10.98;94.65
12215;BME280;6170;42.206;24.142;2022-12-18T02:06:06;99532.97;;;11.01;94.96
12215;BME280;6170;42.206;24.142;2022-12-18T02:08:41;99580.47;;;11.21;94.39
12215;BME280;6170;42.206;24.142;2022-12-18T02:11:17;99556.97;;;10.94;94.52
12215;BME280;6170;42.206;24.142;2022-12-18T02:13:53;99575.94;;;11.07;94.49
12215;BME280;6170;42.206;24.142;2022-12-18T02:16:26;99529.91;;;10.74;94.03
12215;BME280;6170;42.206;24.142;2022-12-18T02:18:56;99578.81;;;11.06;93.37
12215;BME280;6170;42.206;24.142;2022-12-18T02:21:30;99578.00;;;11.05;94.01
12215;BME280;6170;42.206;24.142;2022-12-18T02:24:11;99552.09;;;10.83;93.54
12215;BME280;6170;42.206;24.142;2022-12-18T02:26:47;99542.09;;;10.77;93.33
12215;BME280;6170;42.206;24.142;2022-12-18T02:29:18;99597.31;;;10.86;94.00
12215;BME280;6170;42.206;24.142;2022-12-18T02:31:50;99556.81;;;10.66;93.95
12215;BME280;6170;42.206;24.142;2022-12-18T02:34:19;99542.88;;;10.71;93.32
12215;BME280;6170;42.206;24.142;2022-12-18T02:36:49;99584.28;;;10.83;92.89
12215;BME280;6170;42.206;24.142;2022-12-18T02:39:17;99564.09;;;10.58;92.67
12215;BME280;6170;42.206;24.142;2022-12-18T02:41:49;99572.69;;;10.68;92.24
12215;BME280;6170;42.206;24.142;2022-12-18T02:44:16;99612.81;;;10.76;92.59
12215;BME280;6170;42.206;24.142;2022-12-18T02:46:45;99566.13;;;10.56;92.43
12215;BME280;6170;42.206;24.142;2022-12-18T02:49:23;99608.00;;;10.71;92.05
12215;BME280;6170;42.206;24.142;2022-12-18T02:51:53;99585.34;;;10.59;91.75
12215;BME280;6170;42.206;24.142;2022-12-18T02:54:31;99586.44;;;10.35;92.81
12215;BME280;6170;42.206;24.142;2022-12-18T02:57:07;99620.94;;;10.53;92.82
12215;BME280;6170;42.206;24.142;2022-12-18T02:59:41;99583.91;;;10.11;93.21
12215;BME280;6170;42.206;24.142;2022-12-18T03:02:18;99619.22;;;10.38;93.29
12215;BME280;6170;42.206;24.142;2022-12-18T03:04:50;99591.78;;;10.13;92.76
12215;BME280;6170;42.206;24.142;2022-12-18T03:07:32;99592.97;;;10.10;92.70
12215;BME280;6170;42.206;24.142;2022-12-18T03:10:00;99635.91;;;10.25;93.10
12215;BME280;6170;42.206;24.142;2022-12-18T03:12:32;99601.13;;;9.94;93.12
12215;BME280;6170;42.206;24.142;2022-12-18T03:15:03;99603.44;;;9.97;92.66
12215;BME280;6170;42.206;24.142;2022-12-18T03:17:32;99602.13;;;9.93;92.36
12215;BME280;6170;42.206;24.142;2022-12-18T03:20:03;99604.81;;;9.93;92.04
12215;BME280;6170;42.206;24.142;2022-12-18T03:22:32;99607.09;;;10.04;91.45
12215;BME280;6170;42.206;24.142;2022-12-18T03:25:00;99618.84;;;9.95;91.08
12215;BME280;6170;42.206;24.142;2022-12-18T03:27:31;99623.66;;;9.77;91.59
12215;BME280;6170;42.206;24.142;2022-12-18T03:30:02;99653.94;;;10.00;92.08
12215;BME280;6170;42.206;24.142;2022-12-18T03:32:33;99669.00;;;10.01;91.16
12215;BME280;6170;42.206;24.142;2022-12-18T03:35:04;99623.47;;;9.78;90.75
12215;BME280;6170;42.206;24.142;2022-12-18T03:37:31;99634.75;;;9.66;91.57
12215;BME280;6170;42.206;24.142;2022-12-18T03:39:58;99662.09;;;9.84;91.17
12215;BME280;6170;42.206;24.142;2022-12-18T03:42:28;99630.00;;;9.76;89.90
12215;BME280;6170;42.206;24.142;2022-12-18T03:45:04;99639.16;;;9.59;90.31
12215;BME280;6170;42.206;24.142;2022-12-18T03:47:39;99680.66;;;9.85;89.83
12215;BME280;6170;42.206;24.142;2022-12-18T03:50:12;99639.75;;;9.38;90.49
12215;BME280;6170;42.206;24.142;2022-12-18T03:52:44;99644.91;;;9.39;90.40
12215;BME280;6170;42.206;24.142;2022-12-18T03:55:15;99646.69;;;9.47;90.23
12215;BME280;6170;42.206;24.142;2022-12-18T03:57:44;99651.63;;;9.35;90.11
12215;BME280;6170;42.206;24.142;2022-12-18T04:00:14;99647.63;;;9.31;90.31
12215;BME280;6170;42.206;24.142;2022-12-18T04:02:44;99651.66;;;9.27;89.79
12215;BME280;6170;42.206;24.142;2022-12-18T04:05:13;99661.06;;;9.15;90.83
12215;BME280;6170;42.206;24.142;2022-12-18T04:07:41;99696.00;;;9.53;89.76
12215;BME280;6170;42.206;24.142;2022-12-18T04:10:12;99652.03;;;9.08;90.04
12215;BME280;6170;42.206;24.142;2022-12-18T04:12:40;99682.41;;;9.23;89.54
12215;BME280;6170;42.206;24.142;2022-12-18T04:15:07;99685.78;;;9.17;90.36
12215;BME280;6170;42.206;24.142;2022-12-18T04:17:36;99718.44;;;9.43;89.18
12215;BME280;6170;42.206;24.142;2022-12-18T04:20:03;99686.28;;;9.13;89.20
12215;BME280;6170;42.206;24.142;2022-12-18T04:22:30;99694.47;;;9.19;88.80
12215;BME280;6170;42.206;24.142;2022-12-18T04:24:57;99699.50;;;9.06;89.21
12215;BME280;6170;42.206;24.142;2022-12-18T04:27:24;99742.56;;;9.35;89.44
12215;BME280;6170;42.206;24.142;2022-12-18T04:29:50;99693.69;;;9.02;88.87
12215;BME280;6170;42.206;24.142;2022-12-18T04:32:17;99749.75;;;9.35;88.61
12215;BME280;6170;42.206;24.142;2022-12-18T04:34:45;99713.03;;;9.05;88.36
12215;BME280;6170;42.206;24.142;2022-12-18T04:37:12;99752.41;;;9.35;88.61
12215;BME280;6170;42.206;24.142;2022-12-18T04:39:39;99752.56;;;9.41;88.35
12215;BME280;6170;42.206;24.142;2022-12-18T04:42:05;99698.84;;;9.04;88.00
12215;BME280;6170;42.206;24.142;2022-12-18T04:44:32;99721.53;;;9.24;87.17
12215;BME280;6170;42.206;24.142;2022-12-18T04:46:59;99725.22;;;9.23;87.27
12215;BME280;6170;42.206;24.142;2022-12-18T04:49:26;99731.56;;;9.22;86.72
12215;BME280;6170;42.206;24.142;2022-12-18T04:51:54;99733.38;;;9.22;86.17
12215;BME280;6170;42.206;24.142;2022-12-18T04:54:21;99713.88;;;9.05;86.55
12215;BME280;6170;42.206;24.142;2022-12-18T04:56:48;99722.91;;;9.04;86.62
12215;BME280;6170;42.206;24.142;2022-12-18T04:59:14;99776.47;;;9.35;86.71
12215;BME280;6170;42.206;24.142;2022-12-18T05:01:41;99745.13;;;9.05;86.47
12215;BME280;6170;42.206;24.142;2022-12-18T05:04:08;99738.41;;;9.25;86.67
12215;BME280;6170;42.206;24.142;2022-12-18T05:06:34;99730.75;;;9.06;85.75
12215;BME280;6170;42.206;24.142;2022-12-18T05:09:03;99741.13;;;9.00;86.47
12215;BME280;6170;42.206;24.142;2022-12-18T05:11:29;99742.63;;;9.11;86.01
12215;BME280;6170;42.206;24.142;2022-12-18T05:13:56;99796.56;;;9.31;85.67
12215;BME280;6170;42.206;24.142;2022-12-18T05:16:23;99746.44;;;9.17;85.12
12215;BME280;6170;42.206;24.142;2022-12-18T05:18:49;99809.94;;;9.23;85.32
12215;BME280;6170;42.206;24.142;2022-12-18T05:21:16;99780.03;;;9.03;86.36
12215;BME280;6170;42.206;24.142;2022-12-18T05:23:43;99780.03;;;9.03;86.00
12215;BME280;6170;42.206;24.142;2022-12-18T05:26:16;99764.19;;;9.01;85.54
12215;BME280;6170;42.206;24.142;2022-12-18T05:28:43;99776.38;;;8.96;85.52
12215;BME280;6170;42.206;24.142;2022-12-18T05:31:11;99820.47;;;9.16;85.85
12215;BME280;6170;42.206;24.142;2022-12-18T05:33:38;99766.66;;;8.95;85.15
12215;BME280;6170;42.206;24.142;2022-12-18T05:36:06;99786.22;;;9.20;84.79
12215;BME280;6170;42.206;24.142;2022-12-18T05:38:35;99796.06;;;9.03;84.66
12215;BME280;6170;42.206;24.142;2022-12-18T05:41:03;99836.31;;;9.34;84.56
12215;BME280;6170;42.206;24.142;2022-12-18T05:43:33;99794.59;;;9.00;85.02
12215;BME280;6170;42.206;24.142;2022-12-18T05:46:04;99794.91;;;9.06;84.80
12215;BME280;6170;42.206;24.142;2022-12-18T05:48:31;99795.06;;;9.12;84.18
12215;BME280;6170;42.206;24.142;2022-12-18T05:51:03;99845.34;;;9.49;83.68
12215;BME280;6170;42.206;24.142;2022-12-18T05:53:31;99805.91;;;9.27;83.33
12215;BME280;6170;42.206;24.142;2022-12-18T05:56:00;99855.72;;;9.36;83.66
12215;BME280;6170;42.206;24.142;2022-12-18T05:58:27;99809.78;;;9.08;83.62
12215;BME280;6170;42.206;24.142;2022-12-18T06:00:55;99813.28;;;9.09;83.19
12215;BME280;6170;42.206;24.142;2022-12-18T06:03:22;99812.13;;;9.11;83.17
12215;BME280;6170;42.206;24.142;2022-12-18T06:05:49;99803.09;;;9.04;82.86
12215;BME280;6170;42.206;24.142;2022-12-18T06:08:16;99809.63;;;9.01;82.95
12215;BME280;6170;42.206;24.142;2022-12-18T06:10:49;99820.66;;;9.07;82.98
12215;BME280;6170;42.206;24.142;2022-12-18T06:13:17;99829.50;;;8.99;82.89
12215;BME280;6170;42.206;24.142;2022-12-18T06:15:44;99869.63;;;9.23;82.94
12215;BME280;6170;42.206;24.142;2022-12-18T06:18:12;99875.63;;;9.25;82.65
12215;BME280;6170;42.206;24.142;2022-12-18T06:20:39;99853.41;;;9.00;82.42
12215;BME280;6170;42.206;24.142;2022-12-18T06:23:06;99843.19;;;8.96;82.72
12215;BME280;6170;42.206;24.142;2022-12-18T06:25:37;99855.72;;;9.03;82.49
12215;BME280;6170;42.206;24.142;2022-12-18T06:28:04;99856.91;;;9.01;82.19
12215;BME280;6170;42.206;24.142;2022-12-18T06:30:31;99909.03;;;9.21;82.69
12215;BME280;6170;42.206;24.142;2022-12-18T06:32:57;99873.44;;;9.05;82.37
12215;BME280;6170;42.206;24.142;2022-12-18T06:35:25;99881.97;;;9.08;82.46
12215;BME280;6170;42.206;24.142;2022-12-18T06:37:52;99918.59;;;9.24;82.04
12215;BME280;6170;42.206;24.142;2022-12-18T06:40:19;99896.31;;;8.99;82.56
12215;BME280;6170;42.206;24.142;2022-12-18T06:42:46;99931.97;;;9.24;82.30
12215;BME280;6170;42.206;24.142;2022-12-18T06:45:16;99910.88;;;8.96;82.59
12215;BME280;6170;42.206;24.142;2022-12-18T06:47:42;99935.63;;;9.31;82.00
12215;BME280;6170;42.206;24.142;2022-12-18T06:50:09;99887.47;;;8.90;81.98
12215;BME280;6170;42.206;24.142;2022-12-18T06:52:37;99899.00;;;8.99;81.70
12215;BME280;6170;42.206;24.142;2022-12-18T06:55:08;99912.19;;;8.92;82.33
12215;BME280;6170;42.206;24.142;2022-12-18T06:57:35;99885.59;;;8.75;83.06
12215;BME280;6170;42.206;24.142;2022-12-18T07:00:03;99907.69;;;8.93;81.82
12215;BME280;6170;42.206;24.142;2022-12-18T07:02:31;99955.19;;;9.23;81.52
12215;BME280;6170;42.206;24.142;2022-12-18T07:04:58;99915.22;;;8.97;81.57
12215;BME280;6170;42.206;24.142;2022-12-18T07:07:25;99965.22;;;9.21;81.33
12215;BME280;6170;42.206;24.142;2022-12-18T07:09:53;99924.56;;;8.93;82.08
12215;BME280;6170;42.206;24.142;2022-12-18T07:12:19;99923.53;;;8.94;81.38
12215;BME280;6170;42.206;24.142;2022-12-18T07:14:46;99918.75;;;9.06;81.65
12215;BME280;6170;42.206;24.142;2022-12-18T07:17:13;99922.06;;;9.08;81.26
12215;BME280;6170;42.206;24.142;2022-12-18T07:19:40;99930.72;;;8.94;81.22
12215;BME280;6170;42.206;24.142;2022-12-18T07:22:06;99916.72;;;9.08;80.98
12215;BME280;6170;42.206;24.142;2022-12-18T07:24:33;99919.88;;;9.03;80.82
12215;BME280;6170;42.206;24.142;2022-12-18T07:27:01;99967.09;;;9.37;80.64
12215;BME280;6170;42.206;24.142;2022-12-18T07:29:28;99908.03;;;9.06;80.67
12215;BME280;6170;42.206;24.142;2022-12-18T07:31:55;99962.38;;;9.39;80.42
12215;BME280;6170;42.206;24.142;2022-12-18T07:34:22;99919.91;;;9.12;80.19
12215;BME280;6170;42.206;24.142;2022-12-18T07:36:48;99966.41;;;9.43;80.13
12215;BME280;6170;42.206;24.142;2022-12-18T07:39:15;99935.44;;;9.16;79.71
12215;BME280;6170;42.206;24.142;2022-12-18T07:41:42;99926.28;;;9.27;79.57
12215;BME280;6170;42.206;24.142;2022-12-18T07:44:12;99940.47;;;9.27;79.69
12215;BME280;6170;42.206;24.142;2022-12-18T07:46:39;99988.34;;;9.63;79.02
12215;BME280;6170;42.206;24.142;2022-12-18T07:49:06;99941.81;;;9.39;78.43
12215;BME280;6170;42.206;24.142;2022-12-18T07:51:33;99940.47;;;9.52;78.38
12215;BME280;6170;42.206;24.142;2022-12-18T07:54:00;99919.28;;;9.50;78.22
12215;BME280;6170;42.206;24.142;2022-12-18T07:56:26;99989.00;;;9.81;78.09
12215;BME280;6170;42.206;24.142;2022-12-18T07:58:53;99957.22;;;9.45;77.89
12215;BME280;6170;42.206;24.142;2022-12-18T08:01:22;99943.34;;;9.42;77.98
12215;BME280;6170;42.206;24.142;2022-12-18T08:03:48;99968.59;;;9.72;77.54
12215;BME280;6170;42.206;24.142;2022-12-18T08:06:15;100002.88;;;9.76;77.41
12215;BME280;6170;42.206;24.142;2022-12-18T08:08:42;100009.41;;;9.74;77.07
12215;BME280;6170;42.206;24.142;2022-12-18T08:11:09;99960.88;;;9.36;77.44
12215;BME280;6170;42.206;24.142;2022-12-18T08:13:35;100004.03;;;9.58;77.50
12215;BME280;6170;42.206;24.142;2022-12-18T08:16:05;99960.72;;;9.38;77.54
12215;BME280;6170;42.206;24.142;2022-12-18T08:18:33;99964.41;;;9.29;77.92
12215;BME280;6170;42.206;24.142;2022-12-18T08:21:08;100012.41;;;9.63;77.69
12215;BME280;6170;42.206;24.142;2022-12-18T08:23:35;100009.25;;;9.67;77.00
12215;BME280;6170;42.206;24.142;2022-12-18T08:26:02;99968.56;;;9.39;77.58
12215;BME280;6170;42.206;24.142;2022-12-18T08:28:29;99971.59;;;9.28;78.06
12215;BME280;6170;42.206;24.142;2022-12-18T08:30:56;99966.06;;;9.30;77.53
12215;BME280;6170;42.206;24.142;2022-12-18T08:33:23;99971.94;;;9.41;77.25
12215;BME280;6170;42.206;24.142;2022-12-18T08:35:51;99985.81;;;9.69;76.94
12215;BME280;6170;42.206;24.142;2022-12-18T08:38:18;99979.13;;;9.65;77.25
12215;BME280;6170;42.206;24.142;2022-12-18T08:40:45;99982.81;;;9.64;76.97
12215;BME280;6170;42.206;24.142;2022-12-18T08:43:11;100014.09;;;9.88;76.56
12215;BME280;6170;42.206;24.142;2022-12-18T08:45:56;99968.75;;;9.70;76.73
12215;BME280;6170;42.206;24.142;2022-12-18T08:48:23;100028.28;;;10.05;76.20
12215;BME280;6170;42.206;24.142;2022-12-18T08:50:58;99979.63;;;9.85;75.94
12215;BME280;6170;42.206;24.142;2022-12-18T08:53:26;99991.66;;;9.97;75.96
12215;BME280;6170;42.206;24.142;2022-12-18T08:55:53;99996.69;;;9.92;76.82
12215;BME280;6170;42.206;24.142;2022-12-18T08:58:20;99994.00;;;9.92;75.43
12215;BME280;6170;42.206;24.142;2022-12-18T09:00:47;99984.97;;;10.17;75.13
12215;BME280;6170;42.206;24.142;2022-12-18T09:03:15;99985.97;;;10.08;75.84
12215;BME280;6170;42.206;24.142;2022-12-18T09:05:43;99982.59;;;10.06;75.28
12215;BME280;6170;42.206;24.142;2022-12-18T09:08:11;99990.47;;;10.08;75.89
12215;BME280;6170;42.206;24.142;2022-12-18T09:10:41;99993.66;;;10.19;75.89
12215;BME280;6170;42.206;24.142;2022-12-18T09:13:09;100033.41;;;10.63;74.90
12215;BME280;6170;42.206;24.142;2022-12-18T09:15:40;99989.84;;;10.22;74.94
12215;BME280;6170;42.206;24.142;2022-12-18T09:18:07;99991.97;;;10.34;74.29
12215;BME280;6170;42.206;24.142;2022-12-18T09:20:34;99988.13;;;10.29;73.98
12215;BME280;6170;42.206;24.142;2022-12-18T09:23:01;99992.50;;;10.22;74.58
12215;BME280;6170;42.206;24.142;2022-12-18T09:25:30;99988.78;;;10.23;75.00
12215;BME280;6170;42.206;24.142;2022-12-18T09:27:58;100022.44;;;10.33;74.85
12215;BME280;6170;42.206;24.142;2022-12-18T09:30:25;99997.16;;;10.12;74.25
12215;BME280;6170;42.206;24.142;2022-12-18T09:32:52;99988.66;;;10.16;74.62
12215;BME280;6170;42.206;24.142;2022-12-18T09:35:19;99994.84;;;10.09;74.51
12215;BME280;6170;42.206;24.142;2022-12-18T09:37:45;99990.63;;;10.14;75.22
12215;BME280;6170;42.206;24.142;2022-12-18T09:40:13;99987.13;;;10.30;74.91
12215;BME280;6170;42.206;24.142;2022-12-18T09:42:45;100025.72;;;10.60;73.77
12215;BME280;6170;42.206;24.142;2022-12-18T09:45:14;99978.75;;;10.25;73.66
12215;BME280;6170;42.206;24.142;2022-12-18T09:47:43;100026.38;;;10.70;73.09
12215;BME280;6170;42.206;24.142;2022-12-18T09:50:22;99996.59;;;10.57;74.02
12215;BME280;6170;42.206;24.142;2022-12-18T09:52:53;99997.78;;;10.46;73.76
12215;BME280;6170;42.206;24.142;2022-12-18T09:55:25;99988.56;;;10.57;73.45
12215;BME280;6170;42.206;24.142;2022-12-18T09:57:59;99987.56;;;10.50;73.40
12215;BME280;6170;42.206;24.142;2022-12-18T10:00:27;100025.00;;;10.74;73.24
12215;BME280;6170;42.206;24.142;2022-12-18T10:02:59;100024.03;;;10.59;73.85
12215;BME280;6170;42.206;24.142;2022-12-18T10:05:34;99966.84;;;10.35;74.25
12215;BME280;6170;42.206;24.142;2022-12-18T10:08:07;99983.75;;;10.44;74.35
12215;BME280;6170;42.206;24.142;2022-12-18T10:10:39;99993.00;;;10.72;73.69
12215;BME280;6170;42.206;24.142;2022-12-18T10:13:17;99978.16;;;10.62;73.25
12215;BME280;6170;42.206;24.142;2022-12-18T10:15:54;99968.25;;;10.62;73.64
12215;BME280;6170;42.206;24.142;2022-12-18T10:18:36;100025.09;;;10.97;72.88
12215;BME280;6170;42.206;24.142;2022-12-18T10:21:11;99987.56;;;10.50;73.89
12215;BME280;6170;42.206;24.142;2022-12-18T10:23:43;100024.91;;;10.98;73.36
12215;BME280;6170;42.206;24.142;2022-12-18T10:26:13;99997.22;;;10.67;73.12
12215;BME280;6170;42.206;24.142;2022-12-18T10:28:42;99977.69;;;10.50;73.91
12215;BME280;6170;42.206;24.142;2022-12-18T10:31:15;100038.22;;;10.75;73.90
12215;BME280;6170;42.206;24.142;2022-12-18T10:33:43;99996.69;;;10.71;73.18
12215;BME280;6170;42.206;24.142;2022-12-18T10:36:10;99995.94;;;10.47;73.58
12215;BME280;6170;42.206;24.142;2022-12-18T10:38:37;99998.78;;;10.53;74.02
12215;BME280;6170;42.206;24.142;2022-12-18T10:41:05;99986.94;;;10.40;73.27
12215;BME280;6170;42.206;24.142;2022-12-18T10:43:36;99985.91;;;10.41;73.80
12215;BME280;6170;42.206;24.142;2022-12-18T10:46:15;99997.88;;;10.69;73.05
12215;BME280;6170;42.206;24.142;2022-12-18T10:48:52;100030.97;;;10.92;73.65
12215;BME280;6170;42.206;24.142;2022-12-18T10:51:24;100015.72;;;10.38;73.38
12215;BME280;6170;42.206;24.142;2022-12-18T10:53:55;99996.50;;;10.34;73.72
12215;BME280;6170;42.206;24.142;2022-12-18T10:56:24;100001.69;;;10.35;73.63
12215;BME280;6170;42.206;24.142;2022-12-18T10:58:56;100043.28;;;10.62;74.27
12215;BME280;6170;42.206;24.142;2022-12-18T11:01:25;99993.94;;;10.41;73.70
12215;BME280;6170;42.206;24.142;2022-12-18T11:04:06;99999.28;;;10.57;72.84
12215;BME280;6170;42.206;24.142;2022-12-18T11:06:52;99992.06;;;10.57;73.68
12215;BME280;6170;42.206;24.142;2022-12-18T11:09:20;100036.91;;;10.71;72.48
12215;BME280;6170;42.206;24.142;2022-12-18T11:11:48;100002.50;;;10.44;73.37
12215;BME280;6170;42.206;24.142;2022-12-18T11:14:21;99983.00;;;10.66;73.13
12215;BME280;6170;42.206;24.142;2022-12-18T11:16:51;99981.44;;;10.72;72.49
12215;BME280;6170;42.206;24.142;2022-12-18T11:19:27;100033.56;;;10.69;73.15
12215;BME280;6170;42.206;24.142;2022-12-18T11:21:55;99993.31;;;10.39;73.75
12215;BME280;6170;42.206;24.142;2022-12-18T11:24:27;99978.75;;;10.25;74.20
12215;BME280;6170;42.206;24.142;2022-12-18T11:26:54;99985.63;;;10.19;74.25
12215;BME280;6170;42.206;24.142;2022-12-18T11:29:27;99999.38;;;10.16;74.55
12215;BME280;6170;42.206;24.142;2022-12-18T11:32:20;99994.66;;;10.18;74.64
12215;BME280;6170;42.206;24.142;2022-12-18T11:34:52;100004.03;;;10.06;74.48
12215;BME280;6170;42.206;24.142;2022-12-18T11:37:20;100016.28;;;10.09;74.89
12215;BME280;6170;42.206;24.142;2022-12-18T11:39:51;100051.56;;;10.12;75.20
12215;BME280;6170;42.206;24.142;2022-12-18T11:42:24;100013.94;;;9.89;75.31
12215;BME280;6170;42.206;24.142;2022-12-18T11:44:58;100048.38;;;10.01;75.89
12215;BME280;6170;42.206;24.142;2022-12-18T11:47:29;100002.38;;;9.65;76.08
12215;BME280;6170;42.206;24.142;2022-12-18T11:50:01;100018.41;;;9.65;76.55
12215;BME280;6170;42.206;24.142;2022-12-18T11:52:33;100052.56;;;9.87;77.10
12215;BME280;6170;42.206;24.142;2022-12-18T11:55:11;100015.25;;;9.69;76.39
12215;BME280;6170;42.206;24.142;2022-12-18T11:57:43;100056.06;;;9.87;76.63
12215;BME280;6170;42.206;24.142;2022-12-18T12:00:15;100007.72;;;9.57;76.93
12215;BME280;6170;42.206;24.142;2022-12-18T12:06:01;100018.06;;;9.43;77.06
12215;BME280;6170;42.206;24.142;2022-12-18T12:08:40;100024.25;;;9.52;77.08
12215;BME280;6170;42.206;24.142;2022-12-18T12:11:16;100066.97;;;9.86;76.32
12215;BME280;6170;42.206;24.142;2022-12-18T12:13:52;100025.28;;;9.59;77.00
12215;BME280;6170;42.206;24.142;2022-12-18T12:16:24;100020.78;;;9.68;76.29
12215;BME280;6170;42.206;24.142;2022-12-18T12:19:05;100017.56;;;9.40;76.19
12215;BME280;6170;42.206;24.142;2022-12-18T12:21:40;100076.16;;;9.83;77.44
12215;BME280;6170;42.206;24.142;2022-12-18T12:24:21;100035.16;;;9.83;76.58
12215;BME280;6170;42.206;24.142;2022-12-18T12:27:01;100023.47;;;9.76;75.71
12215;BME280;6170;42.206;24.142;2022-12-18T12:29:41;100037.66;;;10.01;75.13
12215;BME280;6170;42.206;24.142;2022-12-18T12:32:30;100090.94;;;10.28;75.73
12215;BME280;6170;42.206;24.142;2022-12-18T12:35:09;100045.19;;;10.05;75.37
12215;BME280;6170;42.206;24.142;2022-12-18T12:37:45;100047.88;;;10.05;75.38
12215;BME280;6170;42.206;24.142;2022-12-18T12:40:27;100049.06;;;10.03;75.68
12215;BME280;6170;42.206;24.142;2022-12-18T12:42:56;100052.06;;;10.08;75.21
12215;BME280;6170;42.206;24.142;2022-12-18T12:45:42;100040.03;;;10.04;74.85
12215;BME280;6170;42.206;24.142;2022-12-18T12:48:16;100060.63;;;9.95;74.85
12215;BME280;6170;42.206;24.142;2022-12-18T12:50:43;100091.28;;;10.25;75.46
12215;BME280;6170;42.206;24.142;2022-12-18T12:53:20;100057.09;;;10.03;74.96
12215;BME280;6170;42.206;24.142;2022-12-18T12:55:48;100072.00;;;10.13;73.97
12215;BME280;6170;42.206;24.142;2022-12-18T12:58:21;100071.81;;;10.07;74.15
12215;BME280;6170;42.206;24.142;2022-12-18T13:00:54;100077.03;;;10.08;74.05
12215;BME280;6170;42.206;24.142;2022-12-18T13:03:30;100085.06;;;10.08;74.43
12215;BME280;6170;42.206;24.142;2022-12-18T13:06:07;100082.19;;;10.02;73.98
12215;BME280;6170;42.206;24.142;2022-12-18T15:31:29;100254.69;;;8.72;73.26
12215;BME280;6170;42.206;24.142;2022-12-18T15:34:08;100258.50;;;8.69;73.28
12215;BME280;6170;42.206;24.142;2022-12-18T15:36:36;100264.38;;;8.55;73.97
12215;BME280;6170;42.206;24.142;2022-12-18T15:39:04;100261.50;;;8.66;72.96
12215;BME280;6170;42.206;24.142;2022-12-18T15:41:32;100264.25;;;8.56;73.34